Maple Lake, MN

6:54 AM CDT on March 27, 2017 (GMT -0500)
Maple Lake Municipal

Weather History for KMGG - January, 2014

Change the Weather History Date:

Monday, January 6, 2014

  Actual Average (KSTC) Record (KSTC)
Temperature  
Mean Temperature -18 °F -  
Max Temperature -13 °F 17 °F 48 °F (1933)
Min Temperature -22 °F -1 °F -35 °F (1912)
Degree Days  
Heating Degree Days 82    
Moisture  
Dew Point -26 °F    
Average Humidity 67    
Maximum Humidity 77    
Minimum Humidity 61    
Precipitation  
Precipitation 0.00 in - - ()
Sea Level Pressure  
Sea Level Pressure 30.24 in    
Wind  
Wind Speed 11 mph (WNW)    
Max Wind Speed 18 mph    
Max Gust Speed 23 mph    
Visibility 9 miles    
Events      
Averages and records for this station are not official NWS values.
T = Trace of Precipitation, MM = Missing Value Source: NWS Daily Summary

Daily Weather History Graph

Daily Weather History Graph

Search for Another Location

Airport or City:

Trip Planner

Search our weather history database for the weather conditions in past years. The results will help you decide how hot, cold, wet, or windy it might be!

Date:

Astronomy

Jan. 06, 2014 Rise Set
Actual Time 7:54 AM CST 4:49 PM CST
Civil Twilight 7:21 AM CST 5:22 PM CST
Nautical Twilight 6:44 AM CST 5:59 PM CST
Astronomical Twilight 6:08 AM CST 6:35 PM CST
Moon 10:52 AM CST (1/6) 11:43 PM CST (1/6)
Length of Visible Light 10h 01m
Length of Day
8h 54m
Waxing Crescent, 35% of the Moon is Illuminated
Jan 6
Waxing Crescent
Jan 7
First Quarter
Jan 15
Full
Jan 23
Last Quarter
Jan 30
New

Hourly Weather History & Observations

Time (CST) Temp. Windchill Dew Point Humidity Pressure Visibility Wind Dir Wind Speed Gust Speed Precip Events Conditions
12:16 AM -20.6 °F -41.8 °F -28.7 °F 66% 30.30 in 10.0 mi WNW 10.4 mph - N/A   Mostly Cloudy
12:37 AM -20.9 °F -42.2 °F -29.2 °F 66% 30.30 in 10.0 mi WNW 10.4 mph - N/A   Scattered Clouds
12:57 AM -21.1 °F -41.2 °F -29.6 °F 65% 30.29 in 10.0 mi NW 9.2 mph - N/A   Clear
1:16 AM -21.1 °F -42.4 °F -29.6 °F 65% 30.29 in 10.0 mi WNW 10.4 mph - N/A   Scattered Clouds
1:37 AM -21.3 °F -44.8 °F -29.4 °F 66% 30.29 in 10.0 mi WNW 12.7 mph - N/A   Clear
1:57 AM -21.1 °F -42.4 °F -29.6 °F 65% 30.29 in 10.0 mi WNW 10.4 mph 18.4 mph N/A   Clear
2:16 AM -21.3 °F -42.7 °F -30.1 °F 64% 30.29 in 10.0 mi WNW 10.4 mph 17.3 mph N/A   Clear
2:37 AM -21.5 °F -45.0 °F -30.1 °F 64% 30.30 in 10.0 mi WNW 12.7 mph - N/A   Clear
2:56 AM -21.6 °F -43.1 °F -30.1 °F 65% 30.30 in 10.0 mi WNW 10.4 mph - N/A   Clear
3:17 AM -22.0 °F -42.3 °F -30.1 °F 66% 30.30 in 10.0 mi WNW 9.2 mph - N/A   Clear
3:37 AM -22.4 °F -44.0 °F -30.1 °F 67% 30.30 in 10.0 mi WNW 10.4 mph - N/A   Clear
3:56 AM -22.0 °F -43.6 °F -30.1 °F 66% 30.29 in 10.0 mi WNW 10.4 mph - N/A   Scattered Clouds
4:17 AM -22.4 °F -46.2 °F -30.1 °F 67% 30.29 in 10.0 mi WNW 12.7 mph - N/A   Scattered Clouds
4:37 AM -22.4 °F -42.8 °F -30.1 °F 67% 30.29 in 10.0 mi WNW 9.2 mph - N/A   Clear
4:57 AM -22.0 °F -43.6 °F -29.6 °F 68% 30.28 in 10.0 mi WNW 10.4 mph - N/A   Mostly Cloudy
5:17 AM -21.6 °F -43.1 °F -29.6 °F 67% 30.28 in 10.0 mi WNW 10.4 mph 16.1 mph N/A   Overcast
5:36 AM -21.3 °F -43.8 °F -29.2 °F 67% 30.28 in 10.0 mi WNW 11.5 mph - N/A   Overcast
5:57 AM -20.7 °F -43.1 °F -28.5 °F 67% 30.28 in 5.0 mi WNW 11.5 mph 18.4 mph N/A   Haze
6:17 AM -20.7 °F -44.1 °F -28.5 °F 67% 30.27 in 10.0 mi WNW 12.7 mph 16.1 mph N/A   Scattered Clouds
6:37 AM -20.6 °F -41.8 °F -28.3 °F 67% 30.27 in 7.0 mi WNW 10.4 mph - N/A   Scattered Clouds
6:56 AM -20.7 °F -43.1 °F -28.5 °F 67% 30.27 in 10.0 mi WNW 11.5 mph - N/A   Scattered Clouds
7:16 AM -20.6 °F -42.9 °F -28.3 °F 67% 30.27 in 7.0 mi West 11.5 mph - N/A   Mostly Cloudy
7:37 AM -20.4 °F -41.5 °F -28.3 °F 67% 30.26 in 5.0 mi WNW 10.4 mph - N/A   Haze
7:57 AM -20.2 °F -40.1 °F -27.6 °F 69% 30.26 in 7.0 mi WNW 9.2 mph 16.1 mph N/A   Overcast
8:16 AM -19.8 °F -40.9 °F -27.4 °F 68% 30.26 in 4.0 mi West 10.4 mph - N/A   Haze
8:37 AM -19.3 °F -40.2 °F -26.9 °F 68% 30.27 in 3.0 mi WNW 10.4 mph - N/A   Haze
8:57 AM -19.3 °F -41.3 °F -26.7 °F 69% 30.27 in 2.5 mi WNW 11.5 mph 19.6 mph N/A   Haze
9:17 AM -19.3 °F -41.3 °F -27.0 °F 68% 30.27 in 7.0 mi WNW 11.5 mph 23.0 mph N/A   Scattered Clouds
9:36 AM -18.9 °F -42.8 °F -27.4 °F 65% 30.27 in 7.0 mi WNW 13.8 mph 17.3 mph N/A   Scattered Clouds
9:57 AM -18.4 °F -40.2 °F -26.5 °F 66% 30.27 in 10.0 mi WNW 11.5 mph 17.3 mph N/A   Clear
10:17 AM -18.0 °F -40.7 °F -26.5 °F 65% 30.27 in 10.0 mi West 12.7 mph 16.1 mph N/A   Scattered Clouds
10:37 AM -17.5 °F -40.0 °F -26.7 °F 63% 30.27 in 10.0 mi WNW 12.7 mph 19.6 mph N/A   Scattered Clouds
10:56 AM -17.1 °F -38.6 °F -26.5 °F 62% 30.27 in 7.0 mi WNW 11.5 mph 21.9 mph N/A   Scattered Clouds
11:17 AM -16.2 °F -36.4 °F -25.8 °F 62% 30.26 in 7.0 mi WNW 10.4 mph - N/A   Scattered Clouds
11:37 AM -15.7 °F -41.7 °F -25.4 °F 62% 30.25 in 10.0 mi WNW 18.4 mph - N/A   Scattered Clouds
11:56 AM -15.5 °F -37.5 °F -25.2 °F 62% 30.24 in 10.0 mi WNW 12.7 mph 21.9 mph N/A   Scattered Clouds
12:17 PM -14.8 °F -38.3 °F -24.7 °F 61% 30.24 in 10.0 mi West 15.0 mph 20.7 mph N/A   Scattered Clouds
12:37 PM -14.8 °F -35.6 °F -24.7 °F 61% 30.22 in 10.0 mi West 11.5 mph 18.4 mph N/A   Clear
12:57 PM -14.4 °F -39.4 °F -24.2 °F 62% 30.22 in 10.0 mi West 17.3 mph 20.7 mph N/A   Clear
1:17 PM -14.3 °F -37.6 °F -23.8 °F 62% 30.22 in 10.0 mi WNW 15.0 mph 20.7 mph N/A   Scattered Clouds
1:37 PM -14.1 °F -37.4 °F -23.4 °F 63% 30.21 in 10.0 mi WNW 15.0 mph 23.0 mph N/A   Scattered Clouds
1:56 PM -14.3 °F -38.4 °F -23.4 °F 63% 30.22 in 10.0 mi West 16.1 mph 20.7 mph N/A   Mostly Cloudy
2:17 PM -13.7 °F -37.7 °F -22.9 °F 64% 30.21 in 10.0 mi West 16.1 mph 21.9 mph N/A   Scattered Clouds
2:37 PM -13.0 °F -36.0 °F -22.0 °F 64% 30.22 in 10.0 mi West 15.0 mph 19.6 mph N/A   Scattered Clouds
2:57 PM -13.4 °F -38.0 °F -22.7 °F 63% 30.22 in 10.0 mi WNW 17.3 mph 21.9 mph N/A   Scattered Clouds
3:17 PM -13.2 °F -34.6 °F -22.4 °F 64% 30.22 in 10.0 mi West 12.7 mph 17.3 mph N/A   Clear
3:36 PM -13.5 °F -35.0 °F -22.0 °F 66% 30.22 in 10.0 mi West 12.7 mph - N/A   Clear
3:57 PM -14.1 °F -33.7 °F -22.4 °F 66% 30.22 in 10.0 mi West 10.4 mph - N/A   Clear
4:17 PM -14.4 °F -34.2 °F -22.9 °F 66% 30.21 in 10.0 mi West 10.4 mph 16.1 mph N/A   Clear
4:36 PM -14.8 °F -34.6 °F -23.1 °F 66% 30.21 in 10.0 mi West 10.4 mph 17.3 mph N/A   Clear
4:57 PM -15.2 °F -36.1 °F -23.4 °F 66% 30.21 in 10.0 mi WNW 11.5 mph - N/A   Clear
5:17 PM -15.3 °F -35.3 °F -23.4 °F 67% 30.21 in 10.0 mi West 10.4 mph 16.1 mph N/A   Clear
5:37 PM -15.2 °F -35.1 °F -22.9 °F 68% 30.22 in 10.0 mi West 10.4 mph 18.4 mph N/A   Mostly Cloudy
5:56 PM -15.0 °F -35.9 °F -22.9 °F 68% 30.22 in 10.0 mi West 11.5 mph 18.4 mph N/A   Overcast
6:17 PM -15.2 °F -37.9 °F -23.1 °F 67% 30.21 in 10.0 mi West 13.8 mph 19.6 mph N/A   Overcast
6:37 PM -15.7 °F -37.7 °F -23.1 °F 69% 30.21 in 10.0 mi West 12.7 mph - N/A   Scattered Clouds
6:57 PM -15.7 °F -36.8 °F -22.9 °F 70% 30.21 in 10.0 mi West 11.5 mph - N/A   Clear
7:17 PM -15.9 °F -33.5 °F -22.9 °F 71% 30.20 in 10.0 mi West 8.1 mph - N/A   Clear
7:37 PM -15.7 °F -33.3 °F -22.9 °F 70% 30.20 in 10.0 mi West 8.1 mph - N/A   Clear
7:56 PM -15.7 °F -31.9 °F -22.7 °F 71% 30.20 in 10.0 mi West 6.9 mph - N/A   Clear
8:17 PM -15.7 °F -31.9 °F -22.9 °F 70% 30.19 in 10.0 mi West 6.9 mph - N/A   Clear
8:37 PM -16.1 °F -30.6 °F -22.7 °F 72% 30.19 in 10.0 mi West 5.8 mph - N/A   Clear
8:56 PM -16.1 °F -30.6 °F -22.7 °F 72% 30.19 in 10.0 mi West 5.8 mph - N/A   Clear
9:17 PM -15.9 °F -30.4 °F -22.2 °F 73% 30.18 in 10.0 mi West 5.8 mph - N/A   Clear
9:36 PM -16.1 °F -28.6 °F -22.5 °F 72% 30.17 in 10.0 mi West 4.6 mph - N/A   Clear
9:57 PM -16.2 °F -28.8 °F -22.2 °F 74% 30.17 in 10.0 mi West 4.6 mph - N/A   Clear
10:17 PM -16.1 °F -30.6 °F -21.8 °F 75% 30.17 in 10.0 mi West 5.8 mph - N/A   Clear
10:37 PM -15.9 °F -28.4 °F -21.6 °F 75% 30.17 in 10.0 mi West 4.6 mph - N/A   Clear
10:56 PM -15.7 °F -25.8 °F -21.3 °F 76% 30.16 in 10.0 mi West 3.5 mph - N/A   Clear
11:17 PM -15.3 °F -25.4 °F -20.7 °F 77% 30.15 in 10.0 mi West 3.5 mph - N/A   Clear
11:37 PM -14.8 °F -29.1 °F -20.2 °F 77% 30.15 in 10.0 mi West 5.8 mph - N/A   Clear
11:57 PM -13.9 °F -26.1 °F -19.3 °F 77% 30.14 in 10.0 mi West 4.6 mph - N/A   Clear